sensor_id;sensor_type;location;lat;lon;timestamp;pressure;altitude;pressure_sealevel;temperature;humidity
71195;BME280;58908;51.426;7.714;2023-08-20T00:00:05;100274.53;;;18.19;100.00
71195;BME280;58908;51.426;7.714;2023-08-20T00:02:32;100266.75;;;18.16;100.00
71195;BME280;58908;51.426;7.714;2023-08-20T00:04:59;100271.25;;;18.15;100.00
71195;BME280;58908;51.426;7.714;2023-08-20T00:07:27;100281.44;;;18.10;100.00
71195;BME280;58908;51.426;7.714;2023-08-20T00:09:54;100270.03;;;18.08;100.00
71195;BME280;58908;51.426;7.714;2023-08-20T00:12:20;100266.16;;;18.23;100.00
71195;BME280;58908;51.426;7.714;2023-08-20T00:14:55;100270.19;;;18.29;100.00
71195;BME280;58908;51.426;7.714;2023-08-20T00:17:24;100277.66;;;18.24;100.00
71195;BME280;58908;51.426;7.714;2023-08-20T00:19:52;100283.16;;;18.22;100.00
71195;BME280;58908;51.426;7.714;2023-08-20T00:22:19;100284.25;;;18.20;100.00
71195;BME280;58908;51.426;7.714;2023-08-20T00:24:47;100276.47;;;18.17;100.00
71195;BME280;58908;51.426;7.714;2023-08-20T00:27:13;100286.41;;;18.15;100.00
71195;BME280;58908;51.426;7.714;2023-08-20T00:29:40;100284.84;;;18.12;100.00
71195;BME280;58908;51.426;7.714;2023-08-20T00:32:07;100295.41;;;18.14;100.00
71195;BME280;58908;51.426;7.714;2023-08-20T00:34:34;100288.97;;;18.05;100.00
71195;BME280;58908;51.426;7.714;2023-08-20T00:37:00;100284.84;;;18.01;100.00
71195;BME280;58908;51.426;7.714;2023-08-20T00:39:27;100284.13;;;17.88;100.00
71195;BME280;58908;51.426;7.714;2023-08-20T00:41:53;100288.72;;;17.86;100.00
71195;BME280;58908;51.426;7.714;2023-08-20T00:44:20;100296.25;;;17.81;100.00
71195;BME280;58908;51.426;7.714;2023-08-20T00:46:46;100295.72;;;17.76;100.00
71195;BME280;58908;51.426;7.714;2023-08-20T00:49:14;100298.28;;;17.78;100.00
71195;BME280;58908;51.426;7.714;2023-08-20T00:51:40;100301.31;;;17.73;100.00
71195;BME280;58908;51.426;7.714;2023-08-20T00:54:06;100306.56;;;17.75;100.00
71195;BME280;58908;51.426;7.714;2023-08-20T00:56:33;100301.47;;;17.72;100.00
71195;BME280;58908;51.426;7.714;2023-08-20T00:58:59;100301.31;;;17.73;100.00
71195;BME280;58908;51.426;7.714;2023-08-20T01:01:25;100303.53;;;17.79;100.00
71195;BME280;58908;51.426;7.714;2023-08-20T01:03:52;100287.03;;;17.96;100.00
71195;BME280;58908;51.426;7.714;2023-08-20T01:06:21;100280.09;;;18.16;100.00
71195;BME280;58908;51.426;7.714;2023-08-20T01:08:51;100275.88;;;18.24;100.00
71195;BME280;58908;51.426;7.714;2023-08-20T01:11:24;100268.47;;;18.28;100.00
71195;BME280;58908;51.426;7.714;2023-08-20T01:13:53;100265.91;;;18.26;100.00
71195;BME280;58908;51.426;7.714;2023-08-20T01:16:20;100261.66;;;18.24;100.00
71195;BME280;58908;51.426;7.714;2023-08-20T01:18:46;100259.34;;;18.19;100.00
71195;BME280;58908;51.426;7.714;2023-08-20T01:26:48;100237.53;;;18.03;100.00
71195;BME280;58908;51.426;7.714;2023-08-20T01:29:21;100250.16;;;18.01;100.00
71195;BME280;58908;51.426;7.714;2023-08-20T01:31:54;100245.63;;;18.02;100.00
71195;BME280;58908;51.426;7.714;2023-08-20T01:34:20;100251.22;;;17.99;100.00
71195;BME280;58908;51.426;7.714;2023-08-20T01:36:47;100245.78;;;18.00;100.00
71195;BME280;58908;51.426;7.714;2023-08-20T01:39:13;100244.91;;;18.00;100.00
71195;BME280;58908;51.426;7.714;2023-08-20T01:41:39;100241.41;;;17.88;100.00
71195;BME280;58908;51.426;7.714;2023-08-20T01:44:06;100260.47;;;17.84;100.00
71195;BME280;58908;51.426;7.714;2023-08-20T01:46:33;100261.53;;;17.81;100.00
71195;BME280;58908;51.426;7.714;2023-08-20T01:49:00;100261.03;;;17.76;100.00
71195;BME280;58908;51.426;7.714;2023-08-20T01:51:26;100261.53;;;17.70;100.00
71195;BME280;58908;51.426;7.714;2023-08-20T01:53:53;100257.41;;;17.66;100.00
71195;BME280;58908;51.426;7.714;2023-08-20T01:56:19;100264.91;;;17.61;100.00
71195;BME280;58908;51.426;7.714;2023-08-20T01:58:45;100268.56;;;17.60;100.00
71195;BME280;58908;51.426;7.714;2023-08-20T02:01:12;100271.69;;;17.54;100.00
71195;BME280;58908;51.426;7.714;2023-08-20T02:03:39;100265.88;;;17.49;100.00
71195;BME280;58908;51.426;7.714;2023-08-20T02:06:06;100267.22;;;17.55;100.00
71195;BME280;58908;51.426;7.714;2023-08-20T02:08:32;100267.22;;;17.55;100.00
71195;BME280;58908;51.426;7.714;2023-08-20T02:11:01;100267.47;;;17.52;100.00
71195;BME280;58908;51.426;7.714;2023-08-20T02:13:28;100273.59;;;17.41;100.00
71195;BME280;58908;51.426;7.714;2023-08-20T02:15:58;100278.72;;;17.44;100.00
71195;BME280;58908;51.426;7.714;2023-08-20T02:18:24;100273.59;;;17.41;100.00
71195;BME280;58908;51.426;7.714;2023-08-20T02:20:52;100276.78;;;17.46;100.00
71195;BME280;58908;51.426;7.714;2023-08-20T02:23:18;100278.22;;;17.39;100.00
71195;BME280;58908;51.426;7.714;2023-08-20T02:25:45;100272.47;;;17.33;100.00
71195;BME280;58908;51.426;7.714;2023-08-20T02:28:11;100262.03;;;17.30;100.00
71195;BME280;58908;51.426;7.714;2023-08-20T02:30:39;100272.25;;;17.36;100.00
71195;BME280;58908;51.426;7.714;2023-08-20T02:33:05;100259.03;;;17.34;100.00
71195;BME280;58908;51.426;7.714;2023-08-20T02:35:31;100258.28;;;17.32;100.00
71195;BME280;58908;51.426;7.714;2023-08-20T02:37:59;100274.66;;;17.28;100.00
71195;BME280;58908;51.426;7.714;2023-08-20T02:40:25;100279.22;;;17.26;100.00
71195;BME280;58908;51.426;7.714;2023-08-20T02:42:51;100276.81;;;17.34;100.00
71195;BME280;58908;51.426;7.714;2023-08-20T02:45:18;100273.41;;;17.55;100.00
71195;BME280;58908;51.426;7.714;2023-08-20T02:47:47;100268.44;;;17.62;100.00
71195;BME280;58908;51.426;7.714;2023-08-20T02:50:14;100265.28;;;17.68;100.00
71195;BME280;58908;51.426;7.714;2023-08-20T02:52:39;100268.69;;;17.70;100.00
71195;BME280;58908;51.426;7.714;2023-08-20T02:55:07;100271.97;;;17.73;100.00
71195;BME280;58908;51.426;7.714;2023-08-20T02:57:33;100265.28;;;17.79;100.00
71195;BME280;58908;51.426;7.714;2023-08-20T03:00:00;100274.78;;;17.83;100.00
71195;BME280;58908;51.426;7.714;2023-08-20T03:02:26;100286.66;;;17.90;100.00
71195;BME280;58908;51.426;7.714;2023-08-20T03:04:52;100289.31;;;17.79;100.00
71195;BME280;58908;51.426;7.714;2023-08-20T03:07:21;100287.38;;;17.81;100.00
71195;BME280;58908;51.426;7.714;2023-08-20T03:09:47;100295.88;;;17.86;100.00
71195;BME280;58908;51.426;7.714;2023-08-20T03:12:15;100303.53;;;17.90;100.00
71195;BME280;58908;51.426;7.714;2023-08-20T03:14:41;100308.53;;;17.95;100.00
71195;BME280;58908;51.426;7.714;2023-08-20T03:17:07;100306.56;;;17.97;100.00
71195;BME280;58908;51.426;7.714;2023-08-20T03:19:34;100310.69;;;18.01;100.00
71195;BME280;58908;51.426;7.714;2023-08-20T03:22:00;100313.47;;;17.99;100.00
71195;BME280;58908;51.426;7.714;2023-08-20T03:24:27;100316.16;;;17.88;100.00
71195;BME280;58908;51.426;7.714;2023-08-20T03:26:53;100316.28;;;17.87;100.00
71195;BME280;58908;51.426;7.714;2023-08-20T03:29:21;100314.06;;;17.81;100.00
71195;BME280;58908;51.426;7.714;2023-08-20T03:31:47;100313.22;;;17.80;100.00
71195;BME280;58908;51.426;7.714;2023-08-20T03:34:13;100299.63;;;17.72;100.00
71195;BME280;58908;51.426;7.714;2023-08-20T03:36:39;100307.00;;;17.69;100.00
71195;BME280;58908;51.426;7.714;2023-08-20T03:39:06;100309.19;;;17.64;100.00
71195;BME280;58908;51.426;7.714;2023-08-20T03:41:32;100309.44;;;17.61;100.00
71195;BME280;58908;51.426;7.714;2023-08-20T03:44:01;100302.13;;;17.52;100.00
71195;BME280;58908;51.426;7.714;2023-08-20T03:46:30;100302.50;;;17.47;100.00
71195;BME280;58908;51.426;7.714;2023-08-20T03:48:56;100300.91;;;17.45;100.00
71195;BME280;58908;51.426;7.714;2023-08-20T03:51:22;100307.19;;;17.44;100.00
71195;BME280;58908;51.426;7.714;2023-08-20T03:53:49;100309.00;;;17.43;100.00
71195;BME280;58908;51.426;7.714;2023-08-20T03:56:15;100307.56;;;17.39;100.00
71195;BME280;58908;51.426;7.714;2023-08-20T03:58:41;100315.78;;;17.36;100.00
71195;BME280;58908;51.426;7.714;2023-08-20T04:01:07;100314.03;;;17.24;100.00
71195;BME280;58908;51.426;7.714;2023-08-20T04:03:35;100316.78;;;17.23;100.00
71195;BME280;58908;51.426;7.714;2023-08-20T04:06:01;100310.69;;;17.10;100.00
71195;BME280;58908;51.426;7.714;2023-08-20T04:08:28;100317.63;;;17.12;100.00
71195;BME280;58908;51.426;7.714;2023-08-20T04:10:56;100329.59;;;17.07;100.00
71195;BME280;58908;51.426;7.714;2023-08-20T04:13:22;100323.97;;;16.99;100.00
71195;BME280;58908;51.426;7.714;2023-08-20T04:15:48;100329.19;;;17.00;100.00
71195;BME280;58908;51.426;7.714;2023-08-20T04:18:15;100336.00;;;17.04;100.00
71195;BME280;58908;51.426;7.714;2023-08-20T04:20:42;100332.94;;;16.98;100.00
71195;BME280;58908;51.426;7.714;2023-08-20T04:23:08;100340.94;;;16.98;100.00
71195;BME280;58908;51.426;7.714;2023-08-20T04:25:35;100344.91;;;16.92;100.00
71195;BME280;58908;51.426;7.714;2023-08-20T04:28:01;100340.44;;;17.04;100.00
71195;BME280;58908;51.426;7.714;2023-08-20T04:30:27;100343.66;;;17.09;100.00
71195;BME280;58908;51.426;7.714;2023-08-20T04:32:54;100342.63;;;16.99;100.00
71195;BME280;58908;51.426;7.714;2023-08-20T04:35:20;100339.84;;;17.00;100.00
71195;BME280;58908;51.426;7.714;2023-08-20T04:37:48;100340.50;;;17.15;100.00
71195;BME280;58908;51.426;7.714;2023-08-20T04:40:14;100346.13;;;17.23;100.00
71195;BME280;58908;51.426;7.714;2023-08-20T04:42:40;100344.53;;;17.20;100.00
71195;BME280;58908;51.426;7.714;2023-08-20T04:45:07;100328.44;;;17.22;100.00
71195;BME280;58908;51.426;7.714;2023-08-20T04:47:34;100335.47;;;17.23;100.00
71195;BME280;58908;51.426;7.714;2023-08-20T04:50:00;100343.00;;;17.29;100.00
71195;BME280;58908;51.426;7.714;2023-08-20T04:52:27;100345.97;;;17.37;100.00
71195;BME280;58908;51.426;7.714;2023-08-20T04:54:55;100346.59;;;17.40;100.00
71195;BME280;58908;51.426;7.714;2023-08-20T04:57:24;100343.69;;;17.43;100.00
71195;BME280;58908;51.426;7.714;2023-08-20T04:59:50;100338.94;;;17.36;100.00
71195;BME280;58908;51.426;7.714;2023-08-20T05:02:16;100343.22;;;17.26;100.00
71195;BME280;58908;51.426;7.714;2023-08-20T05:04:42;100344.72;;;17.30;100.00
71195;BME280;58908;51.426;7.714;2023-08-20T05:07:09;100353.53;;;17.43;100.00
71195;BME280;58908;51.426;7.714;2023-08-20T05:09:35;100359.47;;;17.46;100.00
71195;BME280;58908;51.426;7.714;2023-08-20T05:12:03;100371.16;;;17.56;100.00
71195;BME280;58908;51.426;7.714;2023-08-20T05:14:29;100372.50;;;17.62;100.00
71195;BME280;58908;51.426;7.714;2023-08-20T05:16:56;100372.50;;;17.62;100.00
71195;BME280;58908;51.426;7.714;2023-08-20T05:19:22;100361.59;;;17.65;100.00
71195;BME280;58908;51.426;7.714;2023-08-20T05:21:49;100378.09;;;17.70;100.00
71195;BME280;58908;51.426;7.714;2023-08-20T05:24:15;100375.22;;;17.73;100.00
71195;BME280;58908;51.426;7.714;2023-08-20T05:26:42;100375.09;;;17.85;100.00
71195;BME280;58908;51.426;7.714;2023-08-20T05:29:09;100371.69;;;17.72;100.00
71195;BME280;58908;51.426;7.714;2023-08-20T05:31:35;100379.13;;;17.91;100.00
71195;BME280;58908;51.426;7.714;2023-08-20T05:34:02;100376.00;;;18.19;100.00
71195;BME280;58908;51.426;7.714;2023-08-20T05:36:28;100378.47;;;18.33;100.00
71195;BME280;58908;51.426;7.714;2023-08-20T05:38:54;100384.50;;;18.24;100.00
71195;BME280;58908;51.426;7.714;2023-08-20T05:41:21;100383.34;;;18.39;100.00
71195;BME280;58908;51.426;7.714;2023-08-20T05:43:47;100392.69;;;18.44;100.00
71195;BME280;58908;51.426;7.714;2023-08-20T05:46:15;100391.94;;;18.42;100.00
71195;BME280;58908;51.426;7.714;2023-08-20T05:48:41;100386.75;;;18.52;100.00
71195;BME280;58908;51.426;7.714;2023-08-20T05:51:07;100383.28;;;18.83;100.00
71195;BME280;58908;51.426;7.714;2023-08-20T05:53:34;100376.00;;;18.96;100.00
71195;BME280;58908;51.426;7.714;2023-08-20T05:56:00;100378.03;;;19.03;100.00
71195;BME280;58908;51.426;7.714;2023-08-20T05:58:26;100380.81;;;19.02;100.00
71195;BME280;58908;51.426;7.714;2023-08-20T06:00:52;100387.50;;;19.18;100.00
71195;BME280;58908;51.426;7.714;2023-08-20T06:03:20;100387.09;;;19.34;100.00
71195;BME280;58908;51.426;7.714;2023-08-20T06:05:46;100376.69;;;19.20;100.00
71195;BME280;58908;51.426;7.714;2023-08-20T06:08:13;100366.16;;;19.39;100.00
71195;BME280;58908;51.426;7.714;2023-08-20T06:10:39;100376.88;;;19.39;100.00
71195;BME280;58908;51.426;7.714;2023-08-20T06:13:05;100377.09;;;19.67;100.00
71195;BME280;58908;51.426;7.714;2023-08-20T06:15:31;100379.78;;;19.67;100.00
71195;BME280;58908;51.426;7.714;2023-08-20T06:17:58;100373.09;;;19.82;100.00
71195;BME280;58908;51.426;7.714;2023-08-20T06:20:25;100377.75;;;19.80;100.00
71195;BME280;58908;51.426;7.714;2023-08-20T06:22:52;100381.41;;;19.99;100.00
71195;BME280;58908;51.426;7.714;2023-08-20T06:25:19;100383.81;;;20.02;100.00
71195;BME280;58908;51.426;7.714;2023-08-20T06:27:45;100384.81;;;20.22;100.00
71195;BME280;58908;51.426;7.714;2023-08-20T06:30:12;100371.06;;;21.53;100.00
71195;BME280;58908;51.426;7.714;2023-08-20T06:32:38;100371.63;;;21.28;100.00
71195;BME280;58908;51.426;7.714;2023-08-20T06:35:05;100363.22;;;22.16;100.00
71195;BME280;58908;51.426;7.714;2023-08-20T06:37:32;100345.41;;;22.61;100.00
71195;BME280;58908;51.426;7.714;2023-08-20T06:39:59;100331.91;;;23.15;100.00
71195;BME280;58908;51.426;7.714;2023-08-20T06:42:25;100313.66;;;24.30;100.00
71195;BME280;58908;51.426;7.714;2023-08-20T06:44:51;100301.16;;;24.62;100.00
71195;BME280;58908;51.426;7.714;2023-08-20T06:47:17;100326.16;;;23.27;100.00
71195;BME280;58908;51.426;7.714;2023-08-20T06:49:44;100311.44;;;24.25;100.00
71195;BME280;58908;51.426;7.714;2023-08-20T06:52:10;100310.81;;;24.39;100.00
71195;BME280;58908;51.426;7.714;2023-08-20T06:54:37;100318.50;;;24.60;100.00
71195;BME280;58908;51.426;7.714;2023-08-20T06:57:04;100305.06;;;25.25;100.00
71195;BME280;58908;51.426;7.714;2023-08-20T06:59:30;100291.22;;;26.00;100.00
71195;BME280;58908;51.426;7.714;2023-08-20T07:01:56;100263.63;;;26.89;100.00
71195;BME280;58908;51.426;7.714;2023-08-20T07:04:23;100261.94;;;26.88;100.00
71195;BME280;58908;51.426;7.714;2023-08-20T07:06:49;100268.25;;;26.81;100.00
71195;BME280;58908;51.426;7.714;2023-08-20T07:09:16;100273.66;;;26.81;100.00
71195;BME280;58908;51.426;7.714;2023-08-20T07:11:44;100259.88;;;26.90;100.00
71195;BME280;58908;51.426;7.714;2023-08-20T07:14:10;100314.81;;;25.18;100.00
71195;BME280;58908;51.426;7.714;2023-08-20T07:16:36;100307.94;;;25.31;100.00
71195;BME280;58908;51.426;7.714;2023-08-20T07:19:03;100308.13;;;25.62;100.00
71195;BME280;58908;51.426;7.714;2023-08-20T07:21:29;100323.50;;;24.88;100.00
71195;BME280;58908;51.426;7.714;2023-08-20T07:23:55;100300.88;;;25.94;100.00
71195;BME280;58908;51.426;7.714;2023-08-20T07:26:22;100286.69;;;26.39;100.00
71195;BME280;58908;51.426;7.714;2023-08-20T07:28:49;100277.25;;;27.04;100.00
71195;BME280;58908;51.426;7.714;2023-08-20T07:31:25;100260.13;;;27.70;100.00
71195;BME280;58908;51.426;7.714;2023-08-20T07:33:52;100252.59;;;27.80;100.00
71195;BME280;58908;51.426;7.714;2023-08-20T07:36:19;100277.94;;;26.98;100.00
71195;BME280;58908;51.426;7.714;2023-08-20T07:38:47;100259.38;;;27.62;100.00
71195;BME280;58908;51.426;7.714;2023-08-20T07:41:13;100259.16;;;27.27;100.00
71195;BME280;58908;51.426;7.714;2023-08-20T07:43:40;100278.38;;;27.09;100.00
71195;BME280;58908;51.426;7.714;2023-08-20T07:46:08;100240.84;;;28.17;100.00
71195;BME280;58908;51.426;7.714;2023-08-20T07:48:34;100230.66;;;28.69;100.00
71195;BME280;58908;51.426;7.714;2023-08-20T07:51:01;100218.63;;;29.34;100.00
71195;BME280;58908;51.426;7.714;2023-08-20T07:53:28;100221.19;;;28.79;100.00
71195;BME280;58908;51.426;7.714;2023-08-20T07:55:54;100229.28;;;28.29;99.94
71195;BME280;58908;51.426;7.714;2023-08-20T07:58:20;100232.66;;;28.60;99.89
71195;BME280;58908;51.426;7.714;2023-08-20T08:00:47;100207.97;;;28.76;95.63
71195;BME280;58908;51.426;7.714;2023-08-20T08:03:14;100223.38;;;28.69;98.17
71195;BME280;58908;51.426;7.714;2023-08-20T08:05:42;100224.91;;;28.93;98.12
71195;BME280;58908;51.426;7.714;2023-08-20T08:08:11;100199.44;;;28.29;93.06
71195;BME280;58908;51.426;7.714;2023-08-20T08:10:37;100225.75;;;28.00;95.88
71195;BME280;58908;51.426;7.714;2023-08-20T08:13:04;100205.69;;;28.94;92.58
71195;BME280;58908;51.426;7.714;2023-08-20T08:15:30;100214.09;;;29.20;92.33
71195;BME280;58908;51.426;7.714;2023-08-20T08:17:56;100204.91;;;30.04;90.63
71195;BME280;58908;51.426;7.714;2023-08-20T08:20:24;100201.09;;;29.64;87.72
71195;BME280;58908;51.426;7.714;2023-08-20T08:22:50;100194.94;;;29.49;86.44
71195;BME280;58908;51.426;7.714;2023-08-20T08:25:17;100236.91;;;28.34;90.85
71195;BME280;58908;51.426;7.714;2023-08-20T08:27:44;100234.19;;;27.90;91.70
71195;BME280;58908;51.426;7.714;2023-08-20T08:30:11;100246.50;;;28.65;93.35
71195;BME280;58908;51.426;7.714;2023-08-20T08:32:37;100230.91;;;28.53;89.07
71195;BME280;58908;51.426;7.714;2023-08-20T08:35:04;100231.66;;;28.97;89.42
71195;BME280;58908;51.426;7.714;2023-08-20T08:37:31;100198.34;;;30.19;84.28
71195;BME280;58908;51.426;7.714;2023-08-20T08:39:58;100179.78;;;31.08;80.60
71195;BME280;58908;51.426;7.714;2023-08-20T08:42:24;100191.88;;;29.93;80.45
71195;BME280;58908;51.426;7.714;2023-08-20T08:44:50;100218.88;;;29.60;83.29
71195;BME280;58908;51.426;7.714;2023-08-20T08:47:17;100214.34;;;29.46;84.33
71195;BME280;58908;51.426;7.714;2023-08-20T08:49:46;100218.38;;;30.52;85.03
71195;BME280;58908;51.426;7.714;2023-08-20T08:52:14;100190.53;;;29.76;80.41
71195;BME280;58908;51.426;7.714;2023-08-20T08:54:43;100244.22;;;27.67;87.09
71195;BME280;58908;51.426;7.714;2023-08-20T08:57:09;100226.78;;;28.78;85.21
71195;BME280;58908;51.426;7.714;2023-08-20T08:59:36;100196.06;;;29.61;80.39
71195;BME280;58908;51.426;7.714;2023-08-20T09:02:04;100208.91;;;30.01;83.44
71195;BME280;58908;51.426;7.714;2023-08-20T09:04:33;100191.34;;;29.00;78.38
71195;BME280;58908;51.426;7.714;2023-08-20T09:07:00;100219.66;;;28.56;83.36
71195;BME280;58908;51.426;7.714;2023-08-20T09:09:26;100214.66;;;27.95;82.40
71195;BME280;58908;51.426;7.714;2023-08-20T09:11:56;100231.09;;;28.22;84.45
71195;BME280;58908;51.426;7.714;2023-08-20T09:14:23;100205.69;;;29.36;80.62
71195;BME280;58908;51.426;7.714;2023-08-20T09:16:57;100203.88;;;29.22;79.09
71195;BME280;58908;51.426;7.714;2023-08-20T09:19:23;100211.28;;;28.72;80.89
71195;BME280;58908;51.426;7.714;2023-08-20T09:21:51;100200.69;;;29.61;79.11
71195;BME280;58908;51.426;7.714;2023-08-20T09:24:25;100188.19;;;30.00;77.34
71195;BME280;58908;51.426;7.714;2023-08-20T09:26:56;100161.25;;;30.71;73.83
71195;BME280;58908;51.426;7.714;2023-08-20T09:29:23;100192.59;;;28.83;77.12
71195;BME280;58908;51.426;7.714;2023-08-20T09:31:49;100220.03;;;28.24;81.20
71195;BME280;58908;51.426;7.714;2023-08-20T09:34:15;100212.97;;;28.73;80.85
71195;BME280;58908;51.426;7.714;2023-08-20T09:36:42;100192.91;;;29.58;78.19
71195;BME280;58908;51.426;7.714;2023-08-20T09:39:09;100227.34;;;28.09;83.49
71195;BME280;58908;51.426;7.714;2023-08-20T09:41:35;100249.41;;;28.20;86.37
71195;BME280;58908;51.426;7.714;2023-08-20T09:44:05;100234.16;;;28.63;84.67
71195;BME280;58908;51.426;7.714;2023-08-20T09:46:32;100227.72;;;28.35;83.20
71195;BME280;58908;51.426;7.714;2023-08-20T09:49:00;100212.94;;;29.78;81.96
71195;BME280;58908;51.426;7.714;2023-08-20T09:51:27;100213.56;;;29.10;80.49
71195;BME280;58908;51.426;7.714;2023-08-20T09:53:55;100205.84;;;28.72;80.76
71195;BME280;58908;51.426;7.714;2023-08-20T09:56:27;100226.06;;;28.34;80.60
71195;BME280;58908;51.426;7.714;2023-08-20T09:58:53;100258.94;;;26.83;85.96
71195;BME280;58908;51.426;7.714;2023-08-20T10:01:21;100240.72;;;28.25;84.52
71195;BME280;58908;51.426;7.714;2023-08-20T10:03:48;100248.50;;;27.99;85.22
71195;BME280;58908;51.426;7.714;2023-08-20T10:06:14;100235.06;;;28.34;82.39
71195;BME280;58908;51.426;7.714;2023-08-20T10:08:41;100225.19;;;28.48;81.10
71195;BME280;58908;51.426;7.714;2023-08-20T10:11:07;100247.94;;;28.18;82.33
71195;BME280;58908;51.426;7.714;2023-08-20T10:13:33;100229.81;;;29.46;81.02
71195;BME280;58908;51.426;7.714;2023-08-20T10:16:00;100219.44;;;29.83;79.47
71195;BME280;58908;51.426;7.714;2023-08-20T10:18:27;100238.22;;;28.73;83.08
71195;BME280;58908;51.426;7.714;2023-08-20T10:20:54;100239.59;;;28.19;82.30
71195;BME280;58908;51.426;7.714;2023-08-20T10:23:22;100276.91;;;26.76;87.83
71195;BME280;58908;51.426;7.714;2023-08-20T10:25:49;100283.81;;;27.09;89.50
71195;BME280;58908;51.426;7.714;2023-08-20T10:28:19;100290.72;;;26.43;89.96
71195;BME280;58908;51.426;7.714;2023-08-20T10:33:38;100283.34;;;26.29;89.91
71195;BME280;58908;51.426;7.714;2023-08-20T10:36:08;100312.16;;;25.98;93.17
71195;BME280;58908;51.426;7.714;2023-08-20T10:38:35;100289.53;;;26.45;92.45
71195;BME280;58908;51.426;7.714;2023-08-20T10:41:02;100300.25;;;26.31;92.85
71195;BME280;58908;51.426;7.714;2023-08-20T10:43:32;100309.00;;;26.41;94.28
71195;BME280;58908;51.426;7.714;2023-08-20T10:46:02;100285.72;;;27.68;91.36
71195;BME280;58908;51.426;7.714;2023-08-20T10:48:29;100236.78;;;28.13;83.97
71195;BME280;58908;51.426;7.714;2023-08-20T10:50:56;100238.31;;;28.44;84.50
71195;BME280;58908;51.426;7.714;2023-08-20T10:53:23;100220.56;;;28.63;82.08
71195;BME280;58908;51.426;7.714;2023-08-20T10:55:50;100243.69;;;27.86;84.53
71195;BME280;58908;51.426;7.714;2023-08-20T10:58:16;100271.31;;;27.53;88.46
71195;BME280;58908;51.426;7.714;2023-08-20T11:00:43;100266.53;;;27.10;88.34
71195;BME280;58908;51.426;7.714;2023-08-20T11:03:09;100301.09;;;26.31;91.69
71195;BME280;58908;51.426;7.714;2023-08-20T11:05:36;100299.94;;;26.26;92.64
71195;BME280;58908;51.426;7.714;2023-08-20T11:08:04;100302.28;;;26.21;93.23
71195;BME280;58908;51.426;7.714;2023-08-20T11:10:33;100278.84;;;27.21;91.76
71195;BME280;58908;51.426;7.714;2023-08-20T11:12:59;100264.22;;;28.32;90.37
71195;BME280;58908;51.426;7.714;2023-08-20T11:15:28;100211.66;;;28.33;82.22
71195;BME280;58908;51.426;7.714;2023-08-20T11:17:54;100231.84;;;27.73;83.91
71195;BME280;58908;51.426;7.714;2023-08-20T11:20:21;100230.47;;;27.69;83.95
71195;BME280;58908;51.426;7.714;2023-08-20T11:22:47;100237.47;;;26.74;84.41
71195;BME280;58908;51.426;7.714;2023-08-20T11:25:15;100255.88;;;26.56;86.88
71195;BME280;58908;51.426;7.714;2023-08-20T11:27:41;100277.69;;;26.85;91.38
71195;BME280;58908;51.426;7.714;2023-08-20T11:30:08;100282.78;;;27.10;91.06
71195;BME280;58908;51.426;7.714;2023-08-20T11:32:35;100277.91;;;27.06;91.76
71195;BME280;58908;51.426;7.714;2023-08-20T11:35:02;100289.66;;;26.68;92.06
71195;BME280;58908;51.426;7.714;2023-08-20T11:37:28;100291.09;;;26.78;94.62
71195;BME280;58908;51.426;7.714;2023-08-20T11:39:55;100284.16;;;26.76;93.40
71195;BME280;58908;51.426;7.714;2023-08-20T11:42:22;100288.13;;;26.96;94.46
71195;BME280;58908;51.426;7.714;2023-08-20T11:44:48;100271.69;;;27.28;92.85
71195;BME280;58908;51.426;7.714;2023-08-20T11:47:15;100257.69;;;27.39;91.47
71195;BME280;58908;51.426;7.714;2023-08-20T11:49:41;100256.41;;;27.49;89.38
71195;BME280;58908;51.426;7.714;2023-08-20T11:52:07;100269.16;;;27.85;92.31
71195;BME280;58908;51.426;7.714;2023-08-20T11:54:34;100265.50;;;27.11;90.70
71195;BME280;58908;51.426;7.714;2023-08-20T11:57:02;100251.91;;;27.42;89.76
71195;BME280;58908;51.426;7.714;2023-08-20T11:59:30;100265.03;;;27.52;92.78
71195;BME280;58908;51.426;7.714;2023-08-20T12:01:56;100256.41;;;26.82;90.42
71195;BME280;58908;51.426;7.714;2023-08-20T12:04:23;100267.84;;;26.92;91.79
71195;BME280;58908;51.426;7.714;2023-08-20T12:07:00;100258.41;;;27.10;90.03
71195;BME280;58908;51.426;7.714;2023-08-20T12:09:27;100271.88;;;26.96;91.99
71195;BME280;58908;51.426;7.714;2023-08-20T12:11:54;100271.47;;;27.07;93.19
71195;BME280;58908;51.426;7.714;2023-08-20T12:14:21;100293.97;;;26.38;96.10
71195;BME280;58908;51.426;7.714;2023-08-20T12:16:48;100306.44;;;26.01;97.60
71195;BME280;58908;51.426;7.714;2023-08-20T12:19:16;100310.53;;;26.35;99.80
71195;BME280;58908;51.426;7.714;2023-08-20T12:21:43;100282.97;;;26.32;95.50
71195;BME280;58908;51.426;7.714;2023-08-20T12:24:09;100277.69;;;26.54;95.28
71195;BME280;58908;51.426;7.714;2023-08-20T12:26:36;100279.88;;;26.59;95.49
71195;BME280;58908;51.426;7.714;2023-08-20T12:29:02;100298.56;;;26.30;97.24
71195;BME280;58908;51.426;7.714;2023-08-20T12:31:28;100286.75;;;26.69;96.13
71195;BME280;58908;51.426;7.714;2023-08-20T12:33:56;100262.19;;;27.01;92.39
71195;BME280;58908;51.426;7.714;2023-08-20T12:36:22;100259.47;;;27.01;91.15
71195;BME280;58908;51.426;7.714;2023-08-20T12:38:48;100251.94;;;27.19;90.76
71195;BME280;58908;51.426;7.714;2023-08-20T12:41:15;100267.94;;;26.76;92.89
71195;BME280;58908;51.426;7.714;2023-08-20T12:43:41;100254.06;;;26.79;90.80
71195;BME280;58908;51.426;7.714;2023-08-20T12:46:07;100248.81;;;27.30;90.69
71195;BME280;58908;51.426;7.714;2023-08-20T12:48:34;100239.94;;;27.36;90.41